sensor_id;sensor_type;location;lat;lon;timestamp;temperature;humidity
5027;DHT22;2532;52.480;13.354;2023-02-12T00:01:22;9.30;99.90
5027;DHT22;2532;52.480;13.354;2023-02-12T00:03:50;9.30;99.90
5027;DHT22;2532;52.480;13.354;2023-02-12T00:06:17;9.30;99.90
5027;DHT22;2532;52.480;13.354;2023-02-12T00:08:48;9.30;99.90
5027;DHT22;2532;52.480;13.354;2023-02-12T00:11:17;9.30;99.90
5027;DHT22;2532;52.480;13.354;2023-02-12T00:13:45;9.30;99.90
5027;DHT22;2532;52.480;13.354;2023-02-12T00:16:14;9.20;99.90
5027;DHT22;2532;52.480;13.354;2023-02-12T00:18:42;9.20;99.90
5027;DHT22;2532;52.480;13.354;2023-02-12T00:21:10;9.20;99.90
5027;DHT22;2532;52.480;13.354;2023-02-12T00:23:39;9.20;99.90
5027;DHT22;2532;52.480;13.354;2023-02-12T00:26:09;9.30;99.90
5027;DHT22;2532;52.480;13.354;2023-02-12T00:28:37;9.30;99.80
5027;DHT22;2532;52.480;13.354;2023-02-12T00:31:06;9.30;99.80
5027;DHT22;2532;52.480;13.354;2023-02-12T00:33:33;9.30;99.80
5027;DHT22;2532;52.480;13.354;2023-02-12T00:36:00;9.30;99.70
5027;DHT22;2532;52.480;13.354;2023-02-12T00:38:27;9.30;99.60
5027;DHT22;2532;52.480;13.354;2023-02-12T00:40:54;9.30;99.70
5027;DHT22;2532;52.480;13.354;2023-02-12T00:43:23;9.30;99.60
5027;DHT22;2532;52.480;13.354;2023-02-12T00:45:50;9.30;99.60
5027;DHT22;2532;52.480;13.354;2023-02-12T00:48:17;9.30;99.60
5027;DHT22;2532;52.480;13.354;2023-02-12T00:50:44;9.30;99.60
5027;DHT22;2532;52.480;13.354;2023-02-12T00:53:12;9.30;99.60
5027;DHT22;2532;52.480;13.354;2023-02-12T00:55:39;9.30;99.90
5027;DHT22;2532;52.480;13.354;2023-02-12T00:58:06;9.30;99.50
5027;DHT22;2532;52.480;13.354;2023-02-12T01:00:35;9.30;99.50
5027;DHT22;2532;52.480;13.354;2023-02-12T01:03:02;9.30;99.50
5027;DHT22;2532;52.480;13.354;2023-02-12T01:05:30;9.30;99.50
5027;DHT22;2532;52.480;13.354;2023-02-12T01:07:57;9.30;99.60
5027;DHT22;2532;52.480;13.354;2023-02-12T01:10:24;9.30;99.60
5027;DHT22;2532;52.480;13.354;2023-02-12T01:12:51;9.20;99.60
5027;DHT22;2532;52.480;13.354;2023-02-12T01:15:19;9.20;99.60
5027;DHT22;2532;52.480;13.354;2023-02-12T01:17:49;9.20;99.50
5027;DHT22;2532;52.480;13.354;2023-02-12T01:20:17;9.20;99.60
5027;DHT22;2532;52.480;13.354;2023-02-12T01:22:45;9.20;99.60
5027;DHT22;2532;52.480;13.354;2023-02-12T01:25:12;9.20;99.50
5027;DHT22;2532;52.480;13.354;2023-02-12T01:27:40;9.20;99.50
5027;DHT22;2532;52.480;13.354;2023-02-12T01:30:09;9.20;99.50
5027;DHT22;2532;52.480;13.354;2023-02-12T01:32:37;9.20;99.50
5027;DHT22;2532;52.480;13.354;2023-02-12T01:35:07;9.20;99.60
5027;DHT22;2532;52.480;13.354;2023-02-12T01:37:35;9.20;99.50
5027;DHT22;2532;52.480;13.354;2023-02-12T01:40:03;9.20;99.50
5027;DHT22;2532;52.480;13.354;2023-02-12T01:42:30;9.20;99.50
5027;DHT22;2532;52.480;13.354;2023-02-12T01:45:37;9.20;99.50
5027;DHT22;2532;52.480;13.354;2023-02-12T01:48:08;9.20;99.50
5027;DHT22;2532;52.480;13.354;2023-02-12T01:50:37;9.20;99.40
5027;DHT22;2532;52.480;13.354;2023-02-12T01:53:04;9.20;99.40
5027;DHT22;2532;52.480;13.354;2023-02-12T01:55:31;9.20;99.50
5027;DHT22;2532;52.480;13.354;2023-02-12T01:57:58;9.30;99.50
5027;DHT22;2532;52.480;13.354;2023-02-12T02:00:25;9.30;99.40
5027;DHT22;2532;52.480;13.354;2023-02-12T02:02:55;9.20;99.40
5027;DHT22;2532;52.480;13.354;2023-02-12T02:05:29;9.30;99.40
5027;DHT22;2532;52.480;13.354;2023-02-12T02:07:58;9.20;99.40
5027;DHT22;2532;52.480;13.354;2023-02-12T02:10:25;9.20;99.30
5027;DHT22;2532;52.480;13.354;2023-02-12T02:12:52;9.20;99.40
5027;DHT22;2532;52.480;13.354;2023-02-12T02:15:39;9.20;99.40
5027;DHT22;2532;52.480;13.354;2023-02-12T02:18:11;9.20;99.30
5027;DHT22;2532;52.480;13.354;2023-02-12T02:21:17;9.20;99.40
5027;DHT22;2532;52.480;13.354;2023-02-12T02:24:04;9.20;99.30
5027;DHT22;2532;52.480;13.354;2023-02-12T02:27:09;9.20;99.40
5027;DHT22;2532;52.480;13.354;2023-02-12T02:30:29;9.20;99.40
5027;DHT22;2532;52.480;13.354;2023-02-12T02:33:09;9.20;99.40
5027;DHT22;2532;52.480;13.354;2023-02-12T02:35:41;9.10;99.40
5027;DHT22;2532;52.480;13.354;2023-02-12T02:38:21;9.10;99.40
5027;DHT22;2532;52.480;13.354;2023-02-12T02:40:54;9.00;99.40
5027;DHT22;2532;52.480;13.354;2023-02-12T02:43:27;9.20;99.50
5027;DHT22;2532;52.480;13.354;2023-02-12T02:46:00;9.10;99.50
5027;DHT22;2532;52.480;13.354;2023-02-12T02:48:32;9.10;99.40
5027;DHT22;2532;52.480;13.354;2023-02-12T02:51:04;9.20;99.50
5027;DHT22;2532;52.480;13.354;2023-02-12T02:53:35;9.20;99.40
5027;DHT22;2532;52.480;13.354;2023-02-12T02:56:06;9.20;99.40
5027;DHT22;2532;52.480;13.354;2023-02-12T02:58:36;9.10;99.40
5027;DHT22;2532;52.480;13.354;2023-02-12T03:01:09;9.20;99.50
5027;DHT22;2532;52.480;13.354;2023-02-12T03:03:41;9.20;99.50
5027;DHT22;2532;52.480;13.354;2023-02-12T03:06:13;9.20;99.50
5027;DHT22;2532;52.480;13.354;2023-02-12T03:08:43;9.20;99.50
5027;DHT22;2532;52.480;13.354;2023-02-12T03:11:16;9.20;99.40
5027;DHT22;2532;52.480;13.354;2023-02-12T03:13:48;9.20;99.40
5027;DHT22;2532;52.480;13.354;2023-02-12T03:16:21;9.20;99.40
5027;DHT22;2532;52.480;13.354;2023-02-12T03:18:52;9.20;99.50
5027;DHT22;2532;52.480;13.354;2023-02-12T03:21:30;9.20;99.40
5027;DHT22;2532;52.480;13.354;2023-02-12T03:24:04;9.20;99.40
5027;DHT22;2532;52.480;13.354;2023-02-12T03:26:40;9.10;99.40
5027;DHT22;2532;52.480;13.354;2023-02-12T03:29:09;9.20;99.50
5027;DHT22;2532;52.480;13.354;2023-02-12T03:31:52;9.20;99.50
5027;DHT22;2532;52.480;13.354;2023-02-12T03:34:29;9.10;99.40
5027;DHT22;2532;52.480;13.354;2023-02-12T03:37:01;9.10;99.50
5027;DHT22;2532;52.480;13.354;2023-02-12T03:39:32;9.10;99.50
5027;DHT22;2532;52.480;13.354;2023-02-12T03:42:04;9.10;99.50
5027;DHT22;2532;52.480;13.354;2023-02-12T03:44:47;9.10;99.60
5027;DHT22;2532;52.480;13.354;2023-02-12T03:47:21;9.10;99.50
5027;DHT22;2532;52.480;13.354;2023-02-12T03:49:54;9.10;99.60
5027;DHT22;2532;52.480;13.354;2023-02-12T03:52:23;9.10;99.50
5027;DHT22;2532;52.480;13.354;2023-02-12T03:54:51;9.10;99.50
5027;DHT22;2532;52.480;13.354;2023-02-12T03:57:19;9.00;99.70
5027;DHT22;2532;52.480;13.354;2023-02-12T03:59:47;8.90;99.40
5027;DHT22;2532;52.480;13.354;2023-02-12T04:02:15;9.00;99.60
5027;DHT22;2532;52.480;13.354;2023-02-12T04:04:46;9.00;99.50
5027;DHT22;2532;52.480;13.354;2023-02-12T04:07:14;9.00;99.50
5027;DHT22;2532;52.480;13.354;2023-02-12T04:09:41;9.00;99.50
5027;DHT22;2532;52.480;13.354;2023-02-12T04:12:19;8.90;99.50
5027;DHT22;2532;52.480;13.354;2023-02-12T04:14:53;8.90;99.60
5027;DHT22;2532;52.480;13.354;2023-02-12T04:17:25;8.80;99.70
5027;DHT22;2532;52.480;13.354;2023-02-12T04:20:04;8.90;99.80
5027;DHT22;2532;52.480;13.354;2023-02-12T04:22:44;8.90;99.70
5027;DHT22;2532;52.480;13.354;2023-02-12T04:25:20;8.90;99.70
5027;DHT22;2532;52.480;13.354;2023-02-12T04:27:56;8.90;99.60
5027;DHT22;2532;52.480;13.354;2023-02-12T04:30:27;9.00;99.60
5027;DHT22;2532;52.480;13.354;2023-02-12T04:33:00;9.00;99.60
5027;DHT22;2532;52.480;13.354;2023-02-12T04:35:32;8.90;99.40
5027;DHT22;2532;52.480;13.354;2023-02-12T04:38:04;8.90;99.40
5027;DHT22;2532;52.480;13.354;2023-02-12T04:40:34;8.90;99.40
5027;DHT22;2532;52.480;13.354;2023-02-12T04:43:02;8.90;99.50
5027;DHT22;2532;52.480;13.354;2023-02-12T04:45:31;8.90;99.50
5027;DHT22;2532;52.480;13.354;2023-02-12T04:47:59;8.80;99.50
5027;DHT22;2532;52.480;13.354;2023-02-12T04:50:36;8.80;99.50
5027;DHT22;2532;52.480;13.354;2023-02-12T04:53:04;8.90;99.50
5027;DHT22;2532;52.480;13.354;2023-02-12T04:55:31;8.90;99.50
5027;DHT22;2532;52.480;13.354;2023-02-12T04:57:58;8.90;99.50
5027;DHT22;2532;52.480;13.354;2023-02-12T05:00:25;8.90;99.40
5027;DHT22;2532;52.480;13.354;2023-02-12T05:02:52;9.00;99.50
5027;DHT22;2532;52.480;13.354;2023-02-12T05:05:19;9.00;99.40
5027;DHT22;2532;52.480;13.354;2023-02-12T05:07:49;9.00;99.40
5027;DHT22;2532;52.480;13.354;2023-02-12T05:10:16;9.10;99.40
5027;DHT22;2532;52.480;13.354;2023-02-12T05:12:43;9.10;99.30
5027;DHT22;2532;52.480;13.354;2023-02-12T05:15:10;9.20;99.20
5027;DHT22;2532;52.480;13.354;2023-02-12T05:17:37;9.10;99.10
5027;DHT22;2532;52.480;13.354;2023-02-12T05:20:05;9.20;99.10
5027;DHT22;2532;52.480;13.354;2023-02-12T05:22:33;9.20;99.10
5027;DHT22;2532;52.480;13.354;2023-02-12T05:25:01;9.20;99.00
5027;DHT22;2532;52.480;13.354;2023-02-12T05:27:28;9.20;99.00
5027;DHT22;2532;52.480;13.354;2023-02-12T05:29:55;9.20;99.00
5027;DHT22;2532;52.480;13.354;2023-02-12T05:32:24;9.20;99.00
5027;DHT22;2532;52.480;13.354;2023-02-12T05:34:51;9.20;99.00
5027;DHT22;2532;52.480;13.354;2023-02-12T05:37:18;9.20;99.00
5027;DHT22;2532;52.480;13.354;2023-02-12T05:39:48;9.20;99.00
5027;DHT22;2532;52.480;13.354;2023-02-12T05:42:16;9.20;98.90
5027;DHT22;2532;52.480;13.354;2023-02-12T05:44:43;9.20;98.90
5027;DHT22;2532;52.480;13.354;2023-02-12T05:47:10;9.20;98.90
5027;DHT22;2532;52.480;13.354;2023-02-12T05:49:37;9.20;98.90
5027;DHT22;2532;52.480;13.354;2023-02-12T05:52:04;9.20;99.00
5027;DHT22;2532;52.480;13.354;2023-02-12T05:54:31;9.20;99.00
5027;DHT22;2532;52.480;13.354;2023-02-12T05:56:58;9.20;99.00
5027;DHT22;2532;52.480;13.354;2023-02-12T05:59:26;9.20;99.30
5027;DHT22;2532;52.480;13.354;2023-02-12T06:01:53;9.20;99.00
5027;DHT22;2532;52.480;13.354;2023-02-12T06:04:22;9.20;99.00
5027;DHT22;2532;52.480;13.354;2023-02-12T06:06:49;9.20;99.30
5027;DHT22;2532;52.480;13.354;2023-02-12T06:09:16;9.20;99.00
5027;DHT22;2532;52.480;13.354;2023-02-12T06:11:44;9.20;99.00
5027;DHT22;2532;52.480;13.354;2023-02-12T06:14:13;9.20;99.00
5027;DHT22;2532;52.480;13.354;2023-02-12T06:16:43;9.20;99.00
5027;DHT22;2532;52.480;13.354;2023-02-12T06:19:12;9.10;98.90
5027;DHT22;2532;52.480;13.354;2023-02-12T06:21:39;9.10;98.90
5027;DHT22;2532;52.480;13.354;2023-02-12T06:24:06;9.10;99.00
5027;DHT22;2532;52.480;13.354;2023-02-12T06:26:33;9.10;99.00
5027;DHT22;2532;52.480;13.354;2023-02-12T06:29:00;9.20;99.00
5027;DHT22;2532;52.480;13.354;2023-02-12T06:31:29;9.20;99.00
5027;DHT22;2532;52.480;13.354;2023-02-12T06:34:00;9.10;99.00
5027;DHT22;2532;52.480;13.354;2023-02-12T06:36:27;9.20;99.00
5027;DHT22;2532;52.480;13.354;2023-02-12T06:38:54;9.10;99.00
5027;DHT22;2532;52.480;13.354;2023-02-12T06:41:22;9.10;99.10
5027;DHT22;2532;52.480;13.354;2023-02-12T06:43:49;9.20;99.10
5027;DHT22;2532;52.480;13.354;2023-02-12T06:46:16;9.20;99.10
5027;DHT22;2532;52.480;13.354;2023-02-12T06:48:44;9.10;99.00
5027;DHT22;2532;52.480;13.354;2023-02-12T06:51:15;9.10;98.90
5027;DHT22;2532;52.480;13.354;2023-02-12T06:53:42;9.20;99.00
5027;DHT22;2532;52.480;13.354;2023-02-12T06:56:11;9.10;99.30
5027;DHT22;2532;52.480;13.354;2023-02-12T06:58:39;9.10;98.90
5027;DHT22;2532;52.480;13.354;2023-02-12T07:01:07;9.20;99.00
5027;DHT22;2532;52.480;13.354;2023-02-12T07:03:36;9.20;98.90
5027;DHT22;2532;52.480;13.354;2023-02-12T07:06:04;9.20;98.70
5027;DHT22;2532;52.480;13.354;2023-02-12T07:08:32;9.20;98.70
5027;DHT22;2532;52.480;13.354;2023-02-12T07:10:59;9.10;98.70
5027;DHT22;2532;52.480;13.354;2023-02-12T07:13:26;9.20;98.70
5027;DHT22;2532;52.480;13.354;2023-02-12T07:15:54;9.20;98.60
5027;DHT22;2532;52.480;13.354;2023-02-12T07:18:21;9.20;98.50
5027;DHT22;2532;52.480;13.354;2023-02-12T07:20:48;9.20;98.40
5027;DHT22;2532;52.480;13.354;2023-02-12T07:23:14;9.20;98.40
5027;DHT22;2532;52.480;13.354;2023-02-12T07:25:43;9.20;98.40
5027;DHT22;2532;52.480;13.354;2023-02-12T07:28:10;9.20;98.40
5027;DHT22;2532;52.480;13.354;2023-02-12T07:30:37;9.10;98.40
5027;DHT22;2532;52.480;13.354;2023-02-12T07:33:04;9.20;98.40
5027;DHT22;2532;52.480;13.354;2023-02-12T07:35:31;9.20;98.30
5027;DHT22;2532;52.480;13.354;2023-02-12T07:37:58;9.10;98.30
5027;DHT22;2532;52.480;13.354;2023-02-12T07:40:25;9.20;98.40
5027;DHT22;2532;52.480;13.354;2023-02-12T07:42:55;9.20;98.40
5027;DHT22;2532;52.480;13.354;2023-02-12T07:45:22;9.20;98.30
5027;DHT22;2532;52.480;13.354;2023-02-12T07:47:49;9.20;98.30
5027;DHT22;2532;52.480;13.354;2023-02-12T07:50:17;9.20;98.30
5027;DHT22;2532;52.480;13.354;2023-02-12T07:52:44;9.30;98.30
5027;DHT22;2532;52.480;13.354;2023-02-12T07:55:11;9.30;98.30
5027;DHT22;2532;52.480;13.354;2023-02-12T07:57:38;9.30;98.20
5027;DHT22;2532;52.480;13.354;2023-02-12T08:00:09;9.30;98.10
5027;DHT22;2532;52.480;13.354;2023-02-12T08:02:36;9.40;98.10
5027;DHT22;2532;52.480;13.354;2023-02-12T08:05:03;9.40;98.10
5027;DHT22;2532;52.480;13.354;2023-02-12T08:07:30;9.40;98.00
5027;DHT22;2532;52.480;13.354;2023-02-12T08:09:57;9.40;98.00
5027;DHT22;2532;52.480;13.354;2023-02-12T08:12:24;9.50;98.10
5027;DHT22;2532;52.480;13.354;2023-02-12T08:14:51;9.50;98.00
5027;DHT22;2532;52.480;13.354;2023-02-12T08:17:20;9.60;97.90
5027;DHT22;2532;52.480;13.354;2023-02-12T08:19:47;9.50;97.60
5027;DHT22;2532;52.480;13.354;2023-02-12T08:22:14;9.60;97.50
5027;DHT22;2532;52.480;13.354;2023-02-12T08:24:41;9.60;97.40
5027;DHT22;2532;52.480;13.354;2023-02-12T08:27:08;9.60;97.40
5027;DHT22;2532;52.480;13.354;2023-02-12T08:29:35;9.70;97.40
5027;DHT22;2532;52.480;13.354;2023-02-12T08:32:03;9.70;97.40
5027;DHT22;2532;52.480;13.354;2023-02-12T08:34:33;9.60;97.00
5027;DHT22;2532;52.480;13.354;2023-02-12T08:37:04;9.70;96.90
5027;DHT22;2532;52.480;13.354;2023-02-12T08:39:31;9.70;96.80
5027;DHT22;2532;52.480;13.354;2023-02-12T08:41:59;9.70;96.80
5027;DHT22;2532;52.480;13.354;2023-02-12T08:44:29;9.70;96.70
5027;DHT22;2532;52.480;13.354;2023-02-12T08:46:57;9.70;96.60
5027;DHT22;2532;52.480;13.354;2023-02-12T08:49:26;9.70;96.70
5027;DHT22;2532;52.480;13.354;2023-02-12T08:51:57;9.80;96.70
5027;DHT22;2532;52.480;13.354;2023-02-12T08:54:25;9.70;96.80
5027;DHT22;2532;52.480;13.354;2023-02-12T08:56:54;9.80;97.00
5027;DHT22;2532;52.480;13.354;2023-02-12T08:59:22;9.80;96.90
5027;DHT22;2532;52.480;13.354;2023-02-12T09:01:50;9.80;96.90
5027;DHT22;2532;52.480;13.354;2023-02-12T09:04:21;9.80;97.00
5027;DHT22;2532;52.480;13.354;2023-02-12T09:06:49;9.80;97.00
5027;DHT22;2532;52.480;13.354;2023-02-12T09:09:18;9.80;97.00
5027;DHT22;2532;52.480;13.354;2023-02-12T09:11:45;9.80;97.00
5027;DHT22;2532;52.480;13.354;2023-02-12T09:14:14;9.70;97.10
5027;DHT22;2532;52.480;13.354;2023-02-12T09:16:41;9.70;97.20
5027;DHT22;2532;52.480;13.354;2023-02-12T09:19:10;9.70;97.30
5027;DHT22;2532;52.480;13.354;2023-02-12T09:21:38;9.70;97.40
5027;DHT22;2532;52.480;13.354;2023-02-12T09:24:06;9.70;97.50
5027;DHT22;2532;52.480;13.354;2023-02-12T09:26:34;9.80;97.60
5027;DHT22;2532;52.480;13.354;2023-02-12T09:29:02;9.80;97.70
5027;DHT22;2532;52.480;13.354;2023-02-12T09:31:30;9.80;97.80
5027;DHT22;2532;52.480;13.354;2023-02-12T09:33:59;9.80;97.80
5027;DHT22;2532;52.480;13.354;2023-02-12T09:36:29;9.80;97.70
5027;DHT22;2532;52.480;13.354;2023-02-12T09:38:56;9.90;97.80
5027;DHT22;2532;52.480;13.354;2023-02-12T09:44:38;10.00;97.10
5027;DHT22;2532;52.480;13.354;2023-02-12T09:47:12;10.00;97.10
5027;DHT22;2532;52.480;13.354;2023-02-12T09:50:00;10.00;97.00
5027;DHT22;2532;52.480;13.354;2023-02-12T09:52:30;10.00;97.00
5027;DHT22;2532;52.480;13.354;2023-02-12T09:54:57;10.00;97.10
5027;DHT22;2532;52.480;13.354;2023-02-12T09:57:29;10.00;97.20
5027;DHT22;2532;52.480;13.354;2023-02-12T10:00:00;10.00;97.10
5027;DHT22;2532;52.480;13.354;2023-02-12T10:02:29;10.00;97.20
5027;DHT22;2532;52.480;13.354;2023-02-12T10:04:56;10.00;97.20
5027;DHT22;2532;52.480;13.354;2023-02-12T10:07:35;9.90;97.70
5027;DHT22;2532;52.480;13.354;2023-02-12T10:10:18;10.00;97.40
5027;DHT22;2532;52.480;13.354;2023-02-12T10:12:54;10.00;97.50
5027;DHT22;2532;52.480;13.354;2023-02-12T10:15:36;10.00;97.60
5027;DHT22;2532;52.480;13.354;2023-02-12T10:18:18;10.10;97.70
5027;DHT22;2532;52.480;13.354;2023-02-12T10:21:04;10.10;97.60
5027;DHT22;2532;52.480;13.354;2023-02-12T10:23:54;10.20;97.60
5027;DHT22;2532;52.480;13.354;2023-02-12T10:26:28;10.20;97.60
5027;DHT22;2532;52.480;13.354;2023-02-12T10:29:04;10.20;97.60
5027;DHT22;2532;52.480;13.354;2023-02-12T10:31:37;10.20;97.60
5027;DHT22;2532;52.480;13.354;2023-02-12T10:34:14;10.20;97.60
5027;DHT22;2532;52.480;13.354;2023-02-12T10:36:43;10.20;97.60
5027;DHT22;2532;52.480;13.354;2023-02-12T10:39:18;10.20;97.70
5027;DHT22;2532;52.480;13.354;2023-02-12T10:41:51;10.20;97.80
5027;DHT22;2532;52.480;13.354;2023-02-12T10:44:22;10.20;97.90
5027;DHT22;2532;52.480;13.354;2023-02-12T10:46:49;10.20;97.90
5027;DHT22;2532;52.480;13.354;2023-02-12T10:49:17;10.20;98.10
5027;DHT22;2532;52.480;13.354;2023-02-12T10:51:57;10.10;98.30
5027;DHT22;2532;52.480;13.354;2023-02-12T10:54:40;10.10;98.60
5027;DHT22;2532;52.480;13.354;2023-02-12T10:57:12;10.10;98.70
5027;DHT22;2532;52.480;13.354;2023-02-12T10:59:42;10.00;98.80
5027;DHT22;2532;52.480;13.354;2023-02-12T11:02:21;10.10;98.90
5027;DHT22;2532;52.480;13.354;2023-02-12T11:04:50;10.10;99.20
5027;DHT22;2532;52.480;13.354;2023-02-12T11:07:17;10.10;99.10
5027;DHT22;2532;52.480;13.354;2023-02-12T11:09:45;10.10;99.10
5027;DHT22;2532;52.480;13.354;2023-02-12T11:12:22;10.20;99.00
5027;DHT22;2532;52.480;13.354;2023-02-12T11:14:55;10.20;98.80
5027;DHT22;2532;52.480;13.354;2023-02-12T11:17:25;10.20;98.60
5027;DHT22;2532;52.480;13.354;2023-02-12T11:20:21;10.20;98.50
5027;DHT22;2532;52.480;13.354;2023-02-12T11:22:54;10.20;98.40
5027;DHT22;2532;52.480;13.354;2023-02-12T11:25:23;10.10;98.50
5027;DHT22;2532;52.480;13.354;2023-02-12T11:28:11;10.10;98.60
5027;DHT22;2532;52.480;13.354;2023-02-12T11:30:51;10.10;98.50
5027;DHT22;2532;52.480;13.354;2023-02-12T11:33:25;10.10;98.50
5027;DHT22;2532;52.480;13.354;2023-02-12T11:35:54;10.00;98.40
5027;DHT22;2532;52.480;13.354;2023-02-12T11:38:46;10.00;98.40
5027;DHT22;2532;52.480;13.354;2023-02-12T11:41:22;10.00;98.40
5027;DHT22;2532;52.480;13.354;2023-02-12T11:43:50;10.10;98.60
5027;DHT22;2532;52.480;13.354;2023-02-12T11:46:22;10.00;98.50
5027;DHT22;2532;52.480;13.354;2023-02-12T11:48:50;10.00;98.50
5027;DHT22;2532;52.480;13.354;2023-02-12T11:51:20;10.00;98.40
5027;DHT22;2532;52.480;13.354;2023-02-12T11:53:50;10.10;98.40
5027;DHT22;2532;52.480;13.354;2023-02-12T11:56:18;10.00;98.20
5027;DHT22;2532;52.480;13.354;2023-02-12T11:58:47;10.10;98.50
5027;DHT22;2532;52.480;13.354;2023-02-12T12:01:20;10.10;98.60
5027;DHT22;2532;52.480;13.354;2023-02-12T12:03:53;10.20;98.20
5027;DHT22;2532;52.480;13.354;2023-02-12T12:06:33;10.30;97.70
5027;DHT22;2532;52.480;13.354;2023-02-12T12:09:05;10.20;97.50
5027;DHT22;2532;52.480;13.354;2023-02-12T12:11:39;10.20;97.60
5027;DHT22;2532;52.480;13.354;2023-02-12T12:14:15;10.20;97.70
5027;DHT22;2532;52.480;13.354;2023-02-12T12:16:49;10.20;97.80
5027;DHT22;2532;52.480;13.354;2023-02-12T12:19:42;10.10;97.80
5027;DHT22;2532;52.480;13.354;2023-02-12T12:22:29;10.10;97.70
5027;DHT22;2532;52.480;13.354;2023-02-12T12:25:02;10.10;97.70
5027;DHT22;2532;52.480;13.354;2023-02-12T12:27:35;10.10;97.80
5027;DHT22;2532;52.480;13.354;2023-02-12T12:30:26;10.20;97.80
5027;DHT22;2532;52.480;13.354;2023-02-12T12:32:58;10.20;97.70
5027;DHT22;2532;52.480;13.354;2023-02-12T12:35:37;10.20;97.80
5027;DHT22;2532;52.480;13.354;2023-02-12T12:38:08;10.20;97.80
5027;DHT22;2532;52.480;13.354;2023-02-12T12:40:48;10.30;97.80
5027;DHT22;2532;52.480;13.354;2023-02-12T12:43:25;10.30;97.80
5027;DHT22;2532;52.480;13.354;2023-02-12T12:46:17;10.30;97.70
5027;DHT22;2532;52.480;13.354;2023-02-12T12:49:15;10.40;97.70
5027;DHT22;2532;52.480;13.354;2023-02-12T12:52:02;10.40;97.60
5027;DHT22;2532;52.480;13.354;2023-02-12T12:54:43;10.40;97.50
5027;DHT22;2532;52.480;13.354;2023-02-12T12:57:17;10.40;97.50
5027;DHT22;2532;52.480;13.354;2023-02-12T13:00:03;10.50;97.50
5027;DHT22;2532;52.480;13.354;2023-02-12T13:02:58;10.50;97.50
5027;DHT22;2532;52.480;13.354;2023-02-12T13:05:50;10.50;97.20
5027;DHT22;2532;52.480;13.354;2023-02-12T13:08:35;10.60;96.90
5027;DHT22;2532;52.480;13.354;2023-02-12T13:11:13;10.50;96.50
5027;DHT22;2532;52.480;13.354;2023-02-12T13:13:44;10.60;96.70
5027;DHT22;2532;52.480;13.354;2023-02-12T13:16:17;10.60;96.60
5027;DHT22;2532;52.480;13.354;2023-02-12T13:18:54;10.60;96.50
5027;DHT22;2532;52.480;13.354;2023-02-12T13:21:36;10.60;96.20
5027;DHT22;2532;52.480;13.354;2023-02-12T13:24:14;10.60;95.80
5027;DHT22;2532;52.480;13.354;2023-02-12T13:26:47;10.60;95.80
5027;DHT22;2532;52.480;13.354;2023-02-12T13:29:18;10.50;95.80
5027;DHT22;2532;52.480;13.354;2023-02-12T13:31:48;10.60;96.00
5027;DHT22;2532;52.480;13.354;2023-02-12T13:34:17;10.60;95.80
5027;DHT22;2532;52.480;13.354;2023-02-12T13:36:48;10.70;95.80
5027;DHT22;2532;52.480;13.354;2023-02-12T13:39:24;10.70;95.80
5027;DHT22;2532;52.480;13.354;2023-02-12T13:42:00;10.80;95.80
5027;DHT22;2532;52.480;13.354;2023-02-12T13:44:36;10.80;95.90
5027;DHT22;2532;52.480;13.354;2023-02-12T13:47:12;10.80;95.60
5027;DHT22;2532;52.480;13.354;2023-02-12T13:49:45;10.90;95.60
5027;DHT22;2532;52.480;13.354;2023-02-12T13:52:25;11.00;95.50
5027;DHT22;2532;52.480;13.354;2023-02-12T13:55:09;11.00;95.20
5027;DHT22;2532;52.480;13.354;2023-02-12T13:57:40;11.10;95.20
5027;DHT22;2532;52.480;13.354;2023-02-12T14:03:22;11.20;95.00
5027;DHT22;2532;52.480;13.354;2023-02-12T14:06:07;11.40;94.70
5027;DHT22;2532;52.480;13.354;2023-02-12T14:08:39;11.40;94.40
5027;DHT22;2532;52.480;13.354;2023-02-12T14:11:08;11.50;94.70
5027;DHT22;2532;52.480;13.354;2023-02-12T14:13:47;11.60;94.50
5027;DHT22;2532;52.480;13.354;2023-02-12T14:16:35;11.70;94.40
5027;DHT22;2532;52.480;13.354;2023-02-12T14:19:52;11.70;94.30
5027;DHT22;2532;52.480;13.354;2023-02-12T14:22:57;11.80;94.20
5027;DHT22;2532;52.480;13.354;2023-02-12T14:25:38;11.80;94.20
5027;DHT22;2532;52.480;13.354;2023-02-12T14:28:15;11.80;94.00
5027;DHT22;2532;52.480;13.354;2023-02-12T14:30:45;11.80;94.10
5027;DHT22;2532;52.480;13.354;2023-02-12T14:33:26;11.80;94.00
5027;DHT22;2532;52.480;13.354;2023-02-12T14:36:12;11.90;94.10
5027;DHT22;2532;52.480;13.354;2023-02-12T14:38:55;11.90;94.10
5027;DHT22;2532;52.480;13.354;2023-02-12T14:41:27;11.90;94.20
5027;DHT22;2532;52.480;13.354;2023-02-12T14:47:15;11.80;94.10
5027;DHT22;2532;52.480;13.354;2023-02-12T14:50:09;11.80;94.20
5027;DHT22;2532;52.480;13.354;2023-02-12T14:52:39;11.70;94.20
5027;DHT22;2532;52.480;13.354;2023-02-12T14:55:28;11.70;94.30
5027;DHT22;2532;52.480;13.354;2023-02-12T14:58:01;11.70;94.40
5027;DHT22;2532;52.480;13.354;2023-02-12T15:00:33;11.80;94.40
5027;DHT22;2532;52.480;13.354;2023-02-12T15:03:06;11.80;94.40
5027;DHT22;2532;52.480;13.354;2023-02-12T15:05:42;11.80;94.50
5027;DHT22;2532;52.480;13.354;2023-02-12T15:08:21;11.80;94.40
5027;DHT22;2532;52.480;13.354;2023-02-12T15:10:51;11.80;94.60
5027;DHT22;2532;52.480;13.354;2023-02-12T15:13:25;11.80;94.50
5027;DHT22;2532;52.480;13.354;2023-02-12T15:15:58;11.80;94.50
5027;DHT22;2532;52.480;13.354;2023-02-12T15:18:29;11.80;94.60
5027;DHT22;2532;52.480;13.354;2023-02-12T15:21:11;11.80;94.70
5027;DHT22;2532;52.480;13.354;2023-02-12T15:23:42;11.80;94.70
5027;DHT22;2532;52.480;13.354;2023-02-12T15:26:13;11.80;94.60
5027;DHT22;2532;52.480;13.354;2023-02-12T15:28:44;11.80;94.70
5027;DHT22;2532;52.480;13.354;2023-02-12T15:31:14;11.80;94.70
5027;DHT22;2532;52.480;13.354;2023-02-12T15:33:45;11.80;94.70
5027;DHT22;2532;52.480;13.354;2023-02-12T15:36:16;11.70;94.50
5027;DHT22;2532;52.480;13.354;2023-02-12T15:38:48;11.70;94.60
5027;DHT22;2532;52.480;13.354;2023-02-12T15:41:33;11.70;94.60
5027;DHT22;2532;52.480;13.354;2023-02-12T15:44:01;11.60;94.70
5027;DHT22;2532;52.480;13.354;2023-02-12T15:46:29;11.60;94.70
5027;DHT22;2532;52.480;13.354;2023-02-12T15:48:56;11.50;94.80
5027;DHT22;2532;52.480;13.354;2023-02-12T15:51:28;11.50;94.80
5027;DHT22;2532;52.480;13.354;2023-02-12T15:53:58;11.50;94.90
5027;DHT22;2532;52.480;13.354;2023-02-12T15:56:26;11.50;94.90
5027;DHT22;2532;52.480;13.354;2023-02-12T15:58:55;11.50;94.90
5027;DHT22;2532;52.480;13.354;2023-02-12T16:01:24;11.40;94.90
5027;DHT22;2532;52.480;13.354;2023-02-12T16:03:55;11.40;94.80
5027;DHT22;2532;52.480;13.354;2023-02-12T16:06:25;11.40;94.80
5027;DHT22;2532;52.480;13.354;2023-02-12T16:09:00;11.40;94.90
5027;DHT22;2532;52.480;13.354;2023-02-12T16:11:29;11.40;94.80
5027;DHT22;2532;52.480;13.354;2023-02-12T16:14:00;11.40;94.80
5027;DHT22;2532;52.480;13.354;2023-02-12T16:16:29;11.40;94.70
5027;DHT22;2532;52.480;13.354;2023-02-12T16:19:14;11.40;94.70
5027;DHT22;2532;52.480;13.354;2023-02-12T16:21:44;11.30;94.70
5027;DHT22;2532;52.480;13.354;2023-02-12T16:24:26;11.30;94.60
5027;DHT22;2532;52.480;13.354;2023-02-12T16:26:55;11.30;94.70
5027;DHT22;2532;52.480;13.354;2023-02-12T16:29:23;11.30;94.80
5027;DHT22;2532;52.480;13.354;2023-02-12T16:31:55;11.20;94.80
5027;DHT22;2532;52.480;13.354;2023-02-12T16:34:31;11.20;94.80
5027;DHT22;2532;52.480;13.354;2023-02-12T16:36:58;11.20;94.70